Time;durP1;ratioP1;P1;durP2;ratioP2;P2;SDS_P1;SDS_P2;PMS_P1;PMS_P2;Temp;Humidity;BMP_temperature;BMP_pressure;BME280_temperature;BME280_humidity;BME280_pressure;Samples;Min_cycle;Max_cycle;Signal;HPM_P1;HPM_P2
2024/01/29 00:02:00;;;;;;;7.30;5.65;;;0.70;99.90;;;;;;494024;240;27582;-72
2024/01/29 00:04:01;;;;;;;7.45;5.82;;;0.70;99.90;;;;;;493909;240;27495;-73
2024/01/29 00:06:02;;;;;;;6.32;5.37;;;0.80;99.90;;;;;;494039;236;27573;-71
2024/01/29 00:08:03;;;;;;;7.25;5.50;;;0.90;99.90;;;;;;494047;240;27511;-73
2024/01/29 00:10:05;;;;;;;7.87;5.47;;;0.90;99.90;;;;;;493415;236;27434;-71
2024/01/29 00:12:06;;;;;;;6.40;4.87;;;0.90;99.90;;;;;;492584;241;27592;-72
2024/01/29 00:14:07;;;;;;;8.25;6.03;;;1.00;99.90;;;;;;492666;241;27491;-71
2024/01/29 00:16:08;;;;;;;7.05;5.62;;;0.90;99.90;;;;;;502894;236;27422;-71
2024/01/29 00:18:10;;;;;;;7.72;5.28;;;0.90;99.90;;;;;;502996;236;27483;-72
2024/01/29 00:20:11;;;;;;;10.20;5.30;;;0.90;99.90;;;;;;502888;236;27446;-72
2024/01/29 00:22:12;;;;;;;6.90;5.12;;;0.90;99.90;;;;;;502899;236;28096;-72
2024/01/29 00:24:13;;;;;;;7.12;4.93;;;1.00;99.90;;;;;;502860;236;28734;-73
2024/01/29 00:26:15;;;;;;;6.32;4.50;;;1.00;99.90;;;;;;502919;236;27987;-71
2024/01/29 00:28:16;;;;;;;4.82;4.25;;;1.00;99.90;;;;;;502989;236;27969;-72
2024/01/29 00:30:17;;;;;;;6.47;5.30;;;1.00;99.90;;;;;;502848;236;27438;-71
2024/01/29 00:32:19;;;;;;;5.37;4.65;;;0.90;99.90;;;;;;502905;236;27563;-71
2024/01/29 00:34:20;;;;;;;4.85;4.35;;;0.90;99.90;;;;;;502858;236;27580;-71
2024/01/29 00:36:21;;;;;;;3.78;3.45;;;1.00;99.90;;;;;;502970;236;27438;-72
2024/01/29 00:38:22;;;;;;;4.62;3.40;;;1.00;99.90;;;;;;502931;236;27520;-72
2024/01/29 00:40:25;;;;;;;5.82;3.72;;;1.10;99.90;;;;;;502874;236;27545;-71
2024/01/29 00:42:25;;;;;;;4.05;3.58;;;1.10;99.90;;;;;;504517;235;27576;-71
2024/01/29 00:44:26;;;;;;;3.62;3.30;;;1.10;99.90;;;;;;493543;235;27785;-75
2024/01/29 00:46:27;;;;;;;5.68;3.72;;;1.10;99.90;;;;;;501076;236;27487;-71
2024/01/29 00:48:28;;;;;;;6.18;3.37;;;1.00;99.90;;;;;;502861;236;27446;-72
2024/01/29 00:50:30;;;;;;;3.28;2.92;;;1.00;99.90;;;;;;502908;236;27913;-71
2024/01/29 00:52:33;;;;;;;3.53;3.22;;;1.00;99.90;;;;;;502921;236;28039;-71
2024/01/29 00:54:32;;;;;;;4.25;3.30;;;1.10;99.90;;;;;;502776;236;27925;-74
2024/01/29 00:56:34;;;;;;;5.87;3.72;;;1.20;99.90;;;;;;502953;236;27445;-69
2024/01/29 00:58:35;;;;;;;4.00;3.60;;;1.20;99.90;;;;;;502841;236;27511;-70
2024/01/29 01:00:38;;;;;;;4.45;3.87;;;1.10;99.90;;;;;;502977;236;27542;-69
2024/01/29 01:02:37;;;;;;;5.18;3.60;;;1.10;99.90;;;;;;504914;235;27430;-69
2024/01/29 01:04:38;;;;;;;3.50;3.20;;;1.30;99.90;;;;;;493063;235;27430;-70
2024/01/29 01:06:40;;;;;;;4.57;3.65;;;1.30;99.90;;;;;;492188;241;27464;-69
2024/01/29 01:08:41;;;;;;;4.40;4.00;;;1.40;99.90;;;;;;492515;236;27907;-69
2024/01/29 01:10:42;;;;;;;5.60;3.87;;;1.50;99.90;;;;;;492703;241;28029;-69
2024/01/29 01:12:43;;;;;;;3.80;3.50;;;1.50;99.90;;;;;;492650;241;27902;-69
2024/01/29 01:14:45;;;;;;;4.10;3.70;;;1.50;99.90;;;;;;492708;236;27906;-71
2024/01/29 01:16:46;;;;;;;4.95;3.53;;;1.60;99.90;;;;;;492616;241;27433;-69
2024/01/29 01:18:47;;;;;;;4.10;3.70;;;1.80;99.90;;;;;;492752;236;27451;-69
2024/01/29 01:20:48;;;;;;;4.18;3.78;;;1.80;99.90;;;;;;492694;241;27490;-71
2024/01/29 01:22:50;;;;;;;3.00;2.70;;;1.90;99.90;;;;;;492627;241;27441;-69
2024/01/29 01:24:51;;;;;;;4.30;3.83;;;2.00;99.90;;;;;;502658;236;27451;-69
2024/01/29 01:26:52;;;;;;;7.20;3.97;;;2.00;99.90;;;;;;502821;236;27434;-69
2024/01/29 01:28:54;;;;;;;4.47;3.85;;;2.10;99.90;;;;;;502844;236;27439;-69
2024/01/29 01:30:55;;;;;;;4.65;3.78;;;2.10;99.90;;;;;;502976;236;27527;-71
2024/01/29 01:32:56;;;;;;;4.57;3.90;;;2.40;99.90;;;;;;502903;236;27525;-70
2024/01/29 01:34:57;;;;;;;4.47;3.70;;;2.40;99.90;;;;;;493801;241;27583;-70
2024/01/29 01:36:58;;;;;;;5.43;4.03;;;2.60;99.90;;;;;;493837;241;27510;-69
2024/01/29 01:39:00;;;;;;;4.18;3.75;;;2.80;99.90;;;;;;493276;236;27859;-70
2024/01/29 01:41:01;;;;;;;5.57;3.95;;;3.20;99.90;;;;;;492708;241;27959;-71
2024/01/29 01:43:02;;;;;;;4.72;3.78;;;3.40;99.90;;;;;;492793;236;27906;-71
2024/01/29 01:45:04;;;;;;;4.25;3.85;;;3.70;99.90;;;;;;494018;240;29097;-70
2024/01/29 01:47:05;;;;;;;6.40;3.95;;;3.70;99.90;;;;;;494055;240;27586;-72
2024/01/29 01:49:06;;;;;;;4.97;3.97;;;4.00;99.90;;;;;;493473;236;27491;-72
2024/01/29 01:51:07;;;;;;;5.95;3.80;;;4.40;99.90;;;;;;492519;241;27580;-73
2024/01/29 01:53:09;;;;;;;4.82;3.45;;;4.40;99.90;;;;;;492769;236;27551;-72
2024/01/29 01:55:10;;;;;;;4.05;3.65;;;4.30;99.90;;;;;;493976;240;27590;-72
2024/01/29 01:57:11;;;;;;;5.37;3.80;;;4.30;99.90;;;;;;494081;240;27948;-72
2024/01/29 01:59:12;;;;;;;4.43;3.78;;;4.40;99.90;;;;;;493464;236;27399;-72
2024/01/29 02:01:14;;;;;;;6.28;3.53;;;4.50;99.90;;;;;;492706;241;27495;-72
2024/01/29 02:03:15;;;;;;;5.30;3.85;;;4.40;99.90;;;;;;492641;236;27489;-72
2024/01/29 02:05:16;;;;;;;4.37;3.90;;;4.50;99.90;;;;;;492693;241;27503;-72
2024/01/29 02:07:17;;;;;;;6.47;4.07;;;4.60;99.90;;;;;;492778;241;28091;-73
2024/01/29 02:09:19;;;;;;;4.45;4.05;;;4.70;99.90;;;;;;492832;236;27874;-72
2024/01/29 02:11:20;;;;;;;6.82;3.92;;;4.80;99.90;;;;;;492622;241;28051;-73
2024/01/29 02:13:21;;;;;;;4.07;3.62;;;4.90;99.90;;;;;;492731;236;27540;-72
2024/01/29 02:15:22;;;;;;;5.55;4.40;;;4.90;99.90;;;;;;492635;241;27467;-72
2024/01/29 02:17:24;;;;;;;4.70;3.50;;;4.90;99.90;;;;;;492768;241;27492;-74
2024/01/29 02:19:25;;;;;;;5.20;3.83;;;4.90;99.90;;;;;;492827;236;27570;-72
2024/01/29 02:21:26;;;;;;;3.85;3.40;;;4.90;99.90;;;;;;492655;241;27494;-73
2024/01/29 02:23:27;;;;;;;8.88;4.20;;;5.10;99.90;;;;;;492786;236;27499;-75
2024/01/29 02:25:29;;;;;;;3.78;3.47;;;5.20;99.90;;;;;;492717;241;27570;-72
2024/01/29 02:27:30;;;;;;;3.85;3.53;;;5.20;99.90;;;;;;492684;241;27581;-73
2024/01/29 02:29:31;;;;;;;6.65;3.80;;;5.30;99.90;;;;;;492543;236;27988;-72
2024/01/29 02:31:32;;;;;;;4.60;3.30;;;5.30;99.90;;;;;;492615;241;27993;-72
2024/01/29 02:33:34;;;;;;;6.57;3.72;;;5.40;99.90;;;;;;492773;236;27608;-74
2024/01/29 02:35:35;;;;;;;5.57;4.05;;;5.40;99.90;;;;;;492735;241;27621;-72
2024/01/29 02:37:36;;;;;;;7.25;3.83;;;5.30;99.90;;;;;;492756;241;27474;-73
2024/01/29 02:39:37;;;;;;;5.03;3.97;;;5.30;99.90;;;;;;492716;236;27487;-72
2024/01/29 02:41:39;;;;;;;7.62;4.57;;;5.40;99.90;;;;;;492707;241;27470;-72
2024/01/29 02:43:41;;;;;;;3.78;3.47;;;5.40;99.90;;;;;;493845;236;27543;-73
2024/01/29 02:45:41;;;;;;;5.35;3.80;;;5.40;99.90;;;;;;502853;236;27440;-72
2024/01/29 02:47:42;;;;;;;5.55;4.57;;;5.50;99.90;;;;;;502938;236;27997;-72
2024/01/29 02:49:44;;;;;;;4.37;3.80;;;5.50;99.90;;;;;;497264;236;27885;-73
2024/01/29 02:51:45;;;;;;;5.32;4.35;;;5.40;99.90;;;;;;493888;240;27546;-73
2024/01/29 02:53:46;;;;;;;6.12;4.30;;;5.40;99.90;;;;;;493905;236;27510;-74
2024/01/29 02:55:47;;;;;;;5.95;4.03;;;5.40;99.90;;;;;;492705;241;27553;-73
2024/01/29 02:57:49;;;;;;;4.32;3.78;;;5.60;99.90;;;;;;492685;241;27498;-73
2024/01/29 02:59:50;;;;;;;5.15;4.43;;;5.60;99.90;;;;;;492796;236;27450;-75
2024/01/29 03:01:51;;;;;;;5.87;3.60;;;5.50;99.90;;;;;;492743;241;27489;-72
2024/01/29 03:03:52;;;;;;;4.12;3.70;;;5.50;99.90;;;;;;492766;236;27492;-72
2024/01/29 03:05:54;;;;;;;5.75;4.10;;;5.60;99.90;;;;;;492649;241;28681;-72
2024/01/29 03:07:55;;;;;;;4.20;3.80;;;5.50;99.90;;;;;;492693;241;29015;-72
2024/01/29 03:09:56;;;;;;;5.70;3.70;;;5.50;99.90;;;;;;499434;236;27449;-74
2024/01/29 03:11:57;;;;;;;6.00;4.22;;;5.40;99.90;;;;;;502738;236;27478;-72
2024/01/29 03:14:00;;;;;;;6.37;4.28;;;5.50;99.90;;;;;;502837;236;27489;-73
2024/01/29 03:16:00;;;;;;;4.53;3.62;;;5.60;99.90;;;;;;502722;236;27489;-72
2024/01/29 03:18:01;;;;;;;6.10;4.50;;;5.60;99.90;;;;;;503035;236;27549;-72
2024/01/29 03:20:03;;;;;;;4.15;3.78;;;5.50;99.90;;;;;;502935;236;27434;-73
2024/01/29 03:22:04;;;;;;;6.07;3.85;;;5.60;99.90;;;;;;502922;236;27974;-72
2024/01/29 03:24:05;;;;;;;4.75;4.10;;;5.70;99.90;;;;;;502876;236;27982;-73
2024/01/29 03:26:06;;;;;;;4.28;3.85;;;5.70;99.90;;;;;;502889;236;28026;-76
2024/01/29 03:28:07;;;;;;;4.40;4.00;;;5.70;99.90;;;;;;502975;236;27493;-72
2024/01/29 03:30:09;;;;;;;5.20;3.75;;;5.70;99.90;;;;;;502871;236;27434;-72
2024/01/29 03:32:10;;;;;;;4.40;4.00;;;5.60;99.90;;;;;;502928;236;27577;-72
2024/01/29 03:34:11;;;;;;;8.40;4.47;;;5.60;99.90;;;;;;501092;236;27800;-72
2024/01/29 03:36:12;;;;;;;7.20;4.60;;;5.50;99.90;;;;;;493925;240;27511;-75
2024/01/29 03:38:14;;;;;;;6.60;4.80;;;5.60;99.90;;;;;;494066;240;27469;-72
2024/01/29 03:40:15;;;;;;;11.30;7.00;;;5.60;99.90;;;;;;500497;236;27961;-72
2024/01/29 03:42:16;;;;;;;8.27;5.95;;;5.70;99.90;;;;;;502950;236;27912;-72
2024/01/29 03:44:18;;;;;;;7.75;4.70;;;5.60;99.90;;;;;;502868;236;27430;-72
2024/01/29 03:46:19;;;;;;;4.55;3.83;;;5.70;99.90;;;;;;502990;236;27579;-73
2024/01/29 03:48:21;;;;;;;4.55;4.15;;;5.80;99.90;;;;;;502990;236;27445;-72
2024/01/29 03:50:21;;;;;;;5.00;4.30;;;5.80;99.90;;;;;;502770;236;27558;-73
2024/01/29 03:52:23;;;;;;;6.07;4.45;;;5.80;99.90;;;;;;502857;236;27470;-72
2024/01/29 03:54:24;;;;;;;8.88;4.85;;;5.80;99.90;;;;;;502954;236;27400;-72
2024/01/29 03:56:25;;;;;;;5.22;4.30;;;5.80;99.90;;;;;;502981;236;27958;-72
2024/01/29 03:58:26;;;;;;;4.68;4.00;;;5.80;99.90;;;;;;502976;236;27900;-71
2024/01/29 04:00:29;;;;;;;5.37;4.05;;;5.80;99.90;;;;;;502894;236;27462;-72
2024/01/29 04:02:29;;;;;;;6.22;4.50;;;5.80;99.90;;;;;;502809;236;27529;-75
2024/01/29 04:04:30;;;;;;;4.75;4.20;;;5.80;99.90;;;;;;500502;236;27521;-72
2024/01/29 04:06:31;;;;;;;7.70;4.85;;;5.80;99.90;;;;;;494002;240;27600;-72
2024/01/29 04:08:33;;;;;;;6.05;4.80;;;5.90;99.90;;;;;;493993;240;27530;-72
2024/01/29 04:10:34;;;;;;;4.30;3.90;;;5.80;99.90;;;;;;493047;236;27418;-72
2024/01/29 04:12:35;;;;;;;8.40;4.68;;;5.80;99.90;;;;;;492650;241;27973;-72
2024/01/29 04:14:36;;;;;;;6.00;3.97;;;5.80;99.90;;;;;;493188;236;27881;-72
2024/01/29 04:16:38;;;;;;;5.87;4.30;;;5.80;99.90;;;;;;494002;240;27502;-72
2024/01/29 04:18:39;;;;;;;6.30;4.25;;;5.80;99.90;;;;;;494000;240;27525;-72
2024/01/29 04:20:40;;;;;;;4.30;3.90;;;5.80;99.90;;;;;;493095;236;27382;-72
2024/01/29 04:22:41;;;;;;;5.12;4.50;;;5.70;99.90;;;;;;492692;241;27492;-73
2024/01/29 04:24:43;;;;;;;5.10;4.18;;;5.60;99.90;;;;;;493225;236;27413;-72
2024/01/29 04:26:44;;;;;;;4.47;4.07;;;5.50;99.90;;;;;;493950;240;27499;-72
2024/01/29 04:28:46;;;;;;;6.03;4.28;;;5.50;99.90;;;;;;494009;240;28080;-75
2024/01/29 04:30:46;;;;;;;6.95;4.55;;;5.50;99.90;;;;;;493022;236;27863;-72
2024/01/29 04:32:48;;;;;;;8.32;4.20;;;5.50;99.90;;;;;;492688;241;27475;-73
2024/01/29 04:34:49;;;;;;;7.62;4.95;;;5.60;99.90;;;;;;493237;236;27502;-72
2024/01/29 04:36:50;;;;;;;7.68;4.43;;;5.60;99.90;;;;;;493999;240;27502;-72
2024/01/29 04:38:51;;;;;;;5.53;4.53;;;5.50;99.90;;;;;;494063;240;27520;-72
2024/01/29 04:40:53;;;;;;;4.75;4.25;;;5.60;99.90;;;;;;501491;236;27530;-72
2024/01/29 04:42:54;;;;;;;4.80;4.28;;;5.70;99.90;;;;;;502919;236;27516;-72
2024/01/29 04:44:55;;;;;;;5.78;4.30;;;5.80;99.90;;;;;;499865;236;28639;-72
2024/01/29 04:46:56;;;;;;;6.40;4.72;;;5.70;99.90;;;;;;493976;240;27975;-72
2024/01/29 04:48:58;;;;;;;7.25;4.55;;;5.70;99.90;;;;;;494060;240;27502;-74
2024/01/29 04:50:59;;;;;;;5.12;4.22;;;5.70;99.90;;;;;;492965;236;27470;-72
2024/01/29 04:53:00;;;;;;;4.78;4.25;;;5.50;99.90;;;;;;492563;241;27461;-72
2024/01/29 04:55:01;;;;;;;7.20;4.72;;;5.50;99.90;;;;;;492759;236;27499;-75
2024/01/29 04:57:03;;;;;;;4.53;3.83;;;5.50;99.90;;;;;;492730;241;27434;-72
2024/01/29 04:59:04;;;;;;;5.55;4.43;;;5.60;99.90;;;;;;492710;241;27495;-73
2024/01/29 05:01:05;;;;;;;5.37;4.87;;;5.60;99.90;;;;;;492725;236;27868;-72
2024/01/29 05:03:07;;;;;;;8.50;5.20;;;5.60;99.90;;;;;;492523;241;27944;-72
2024/01/29 05:05:08;;;;;;;6.05;4.50;;;5.60;99.90;;;;;;493206;236;27486;-74
2024/01/29 05:07:09;;;;;;;7.03;5.10;;;5.60;99.90;;;;;;493881;240;27448;-72
2024/01/29 05:09:12;;;;;;;6.68;4.95;;;;;;;;;;494024;240;27502;-72
2024/01/29 05:11:14;;;;;;;6.03;4.80;;;5.40;99.90;;;;;;492797;236;26324;-72
2024/01/29 05:13:14;;;;;;;6.35;4.72;;;5.50;99.90;;;;;;492633;241;27507;-73
2024/01/29 05:15:15;;;;;;;9.98;5.62;;;5.40;99.90;;;;;;492720;236;27451;-72
2024/01/29 05:17:16;;;;;;;7.70;5.57;;;5.50;99.90;;;;;;492667;241;27471;-72
2024/01/29 05:19:18;;;;;;;9.10;4.90;;;5.50;99.90;;;;;;492729;241;27980;-72
2024/01/29 05:21:19;;;;;;;6.35;5.28;;;5.60;99.90;;;;;;502082;236;27879;-72
2024/01/29 05:23:20;;;;;;;8.60;4.95;;;5.50;99.90;;;;;;502968;236;27965;-73
2024/01/29 05:25:21;;;;;;;6.78;5.18;;;5.50;99.90;;;;;;499141;236;27424;-72
2024/01/29 05:27:23;;;;;;;5.62;5.05;;;5.60;99.90;;;;;;494046;240;27501;-72
2024/01/29 05:29:24;;;;;;;4.57;4.12;;;5.60;99.90;;;;;;494046;240;27506;-73
2024/01/29 05:31:25;;;;;;;6.20;5.03;;;5.60;99.90;;;;;;502388;236;27551;-72
2024/01/29 05:33:26;;;;;;;5.50;5.00;;;5.60;99.90;;;;;;503000;236;27556;-72
2024/01/29 05:35:28;;;;;;;7.00;5.40;;;5.60;99.90;;;;;;502849;236;27892;-72
2024/01/29 05:37:31;;;;;;;6.35;4.97;;;5.60;99.90;;;;;;502960;236;27960;-72
2024/01/29 05:39:30;;;;;;;11.00;5.12;;;5.60;99.90;;;;;;502824;236;27965;-75
2024/01/29 05:41:31;;;;;;;5.85;4.53;;;5.60;99.90;;;;;;502906;236;27405;-72
2024/01/29 05:43:33;;;;;;;6.85;5.70;;;5.60;99.90;;;;;;502915;236;27485;-72
2024/01/29 05:45:34;;;;;;;6.53;4.80;;;5.50;99.90;;;;;;502853;236;27401;-72
2024/01/29 05:47:35;;;;;;;5.57;5.00;;;5.60;99.90;;;;;;502971;236;27548;-72
2024/01/29 05:49:37;;;;;;;6.22;4.78;;;5.60;99.90;;;;;;503034;236;27474;-73
2024/01/29 05:51:38;;;;;;;6.15;4.85;;;5.50;99.90;;;;;;502823;236;27493;-72
2024/01/29 05:53:39;;;;;;;10.63;5.65;;;5.60;99.90;;;;;;502957;236;27977;-72
2024/01/29 05:55:40;;;;;;;6.47;4.90;;;5.50;99.90;;;;;;502803;236;29693;-73
2024/01/29 05:57:42;;;;;;;6.70;5.12;;;5.60;99.90;;;;;;503037;236;27438;-72
2024/01/29 05:59:43;;;;;;;5.65;4.97;;;5.60;99.90;;;;;;502978;236;27480;-72
2024/01/29 06:01:44;;;;;;;7.97;5.72;;;5.60;99.90;;;;;;502933;236;27451;-72
2024/01/29 06:03:45;;;;;;;5.55;4.43;;;5.60;99.90;;;;;;502925;236;27485;-72
2024/01/29 06:05:47;;;;;;;8.50;5.12;;;5.60;99.90;;;;;;498429;236;27832;-74
2024/01/29 06:07:48;;;;;;;10.98;5.43;;;5.60;99.90;;;;;;494008;240;27545;-72
2024/01/29 06:09:49;;;;;;;7.12;5.75;;;5.60;99.90;;;;;;494054;236;28099;-73
2024/01/29 06:11:50;;;;;;;7.70;5.50;;;5.60;99.90;;;;;;493772;241;27972;-72
2024/01/29 06:13:52;;;;;;;6.50;5.15;;;5.60;99.90;;;;;;493896;241;27984;-72
2024/01/29 06:15:53;;;;;;;8.23;5.50;;;5.60;99.90;;;;;;498516;236;27446;-74
2024/01/29 06:17:54;;;;;;;9.07;5.07;;;5.60;99.90;;;;;;503046;236;27452;-72
2024/01/29 06:19:55;;;;;;;7.32;5.85;;;5.60;99.90;;;;;;502911;236;27488;-72
2024/01/29 06:21:57;;;;;;;6.32;5.40;;;5.60;99.90;;;;;;503042;236;27456;-72
2024/01/29 06:23:58;;;;;;;7.18;6.47;;;5.60;99.90;;;;;;502975;236;27514;-72
2024/01/29 06:25:59;;;;;;;7.10;5.70;;;5.60;99.90;;;;;;502916;236;27454;-73
2024/01/29 06:28:00;;;;;;;6.40;5.22;;;5.70;99.90;;;;;;503050;236;27440;-72
2024/01/29 06:30:02;;;;;;;11.85;6.25;;;5.70;99.90;;;;;;502899;236;27984;-72
2024/01/29 06:32:03;;;;;;;7.97;5.82;;;5.80;99.90;;;;;;502903;236;28809;-72
2024/01/29 06:34:04;;;;;;;10.10;5.85;;;5.70;99.90;;;;;;503043;236;27438;-72
2024/01/29 06:36:06;;;;;;;9.20;5.50;;;5.70;99.90;;;;;;502853;236;27915;-72
2024/01/29 06:38:07;;;;;;;8.38;5.85;;;5.70;99.90;;;;;;503020;236;28670;-72
2024/01/29 06:40:08;;;;;;;7.57;5.55;;;5.70;99.90;;;;;;502937;236;27574;-72
2024/01/29 06:42:09;;;;;;;8.50;6.00;;;5.60;99.90;;;;;;503011;236;27501;-73
2024/01/29 06:44:11;;;;;;;9.55;5.10;;;5.60;99.90;;;;;;502894;236;27538;-72
2024/01/29 06:46:12;;;;;;;7.75;5.47;;;5.60;99.90;;;;;;502914;236;27457;-72
2024/01/29 06:48:13;;;;;;;7.22;5.57;;;5.50;99.90;;;;;;502981;236;27852;-73
2024/01/29 06:50:14;;;;;;;8.35;5.75;;;5.50;99.90;;;;;;502837;236;27460;-73
2024/01/29 06:52:16;;;;;;;6.68;5.12;;;5.50;99.90;;;;;;502910;236;27590;-72
2024/01/29 06:54:17;;;;;;;6.10;5.50;;;5.40;99.90;;;;;;502956;236;28040;-72
2024/01/29 06:56:18;;;;;;;6.87;5.70;;;5.40;99.90;;;;;;502836;236;28041;-72
2024/01/29 06:58:19;;;;;;;9.65;6.30;;;5.40;99.90;;;;;;502996;236;27489;-74
2024/01/29 07:00:21;;;;;;;6.53;5.87;;;5.50;99.90;;;;;;502867;236;27436;-72
2024/01/29 07:02:22;;;;;;;11.25;7.68;;;5.40;99.90;;;;;;502960;236;27481;-73
2024/01/29 07:04:23;;;;;;;6.93;5.78;;;5.50;99.90;;;;;;502936;236;27448;-72
2024/01/29 07:06:24;;;;;;;10.25;6.85;;;5.50;99.90;;;;;;502912;236;27411;-71
2024/01/29 07:08:26;;;;;;;9.60;6.60;;;5.50;99.90;;;;;;502956;236;27571;-74
2024/01/29 07:10:27;;;;;;;8.40;6.30;;;5.50;99.90;;;;;;502885;236;27873;-72
2024/01/29 07:12:28;;;;;;;9.82;7.15;;;5.50;99.90;;;;;;502910;236;27975;-72
2024/01/29 07:14:29;;;;;;;9.98;7.37;;;5.50;99.90;;;;;;503013;236;28681;-72
2024/01/29 07:16:31;;;;;;;19.50;7.47;;;5.50;99.90;;;;;;502747;236;27387;-72
2024/01/29 07:18:32;;;;;;;17.27;8.60;;;5.50;99.90;;;;;;502966;236;27473;-73
2024/01/29 07:20:41;;;;;;;12.52;7.85;;;5.50;99.90;;;;;;500098;236;27410;-72
2024/01/29 07:22:42;;;;;;;14.35;9.35;;;5.50;99.90;;;;;;492558;241;27482;-72
2024/01/29 07:24:42;;;;;;;16.33;9.48;;;5.50;99.90;;;;;;492657;241;28032;-75
2024/01/29 07:26:43;;;;;;;12.52;8.07;;;5.50;99.90;;;;;;492703;236;28103;-76
2024/01/29 07:28:44;;;;;;;11.27;7.35;;;5.50;99.90;;;;;;496300;236;27407;-73
2024/01/29 07:30:46;;;;;;;9.52;6.30;;;5.60;99.90;;;;;;495357;236;27313;-72
2024/01/29 07:32:47;;;;;;;6.80;6.07;;;5.60;99.90;;;;;;492098;241;27534;-72
2024/01/29 07:34:48;;;;;;;10.75;6.93;;;5.50;99.90;;;;;;492245;241;27942;-76
2024/01/29 07:36:49;;;;;;;8.73;6.72;;;5.60;99.90;;;;;;493513;236;27910;-72
2024/01/29 07:38:51;;;;;;;10.73;6.30;;;5.70;99.90;;;;;;494035;240;27549;-72
2024/01/29 07:40:52;;;;;;;8.15;6.03;;;5.70;99.90;;;;;;493759;236;27478;-72
2024/01/29 07:42:53;;;;;;;6.28;5.37;;;5.70;99.90;;;;;;492631;241;27536;-73
2024/01/29 07:44:54;;;;;;;11.30;6.32;;;5.70;99.90;;;;;;492603;241;27486;-76
2024/01/29 07:46:56;;;;;;;9.45;5.65;;;5.70;99.90;;;;;;493356;236;27465;-73
2024/01/29 07:48:59;;;;;;;6.37;5.72;;;5.70;99.90;;;;;;501463;235;27490;-74
2024/01/29 07:50:58;;;;;;;7.78;5.22;;;5.70;99.90;;;;;;500149;236;28499;-72
2024/01/29 07:52:59;;;;;;;10.77;6.20;;;5.80;99.90;;;;;;492642;241;28180;-72
2024/01/29 07:55:01;;;;;;;11.60;6.50;;;5.80;99.90;;;;;;492675;241;27515;-78
2024/01/29 07:57:03;;;;;;;10.07;5.75;;;5.80;99.90;;;;;;492986;236;27487;-72
2024/01/29 07:59:03;;;;;;;9.40;6.35;;;5.80;99.90;;;;;;492691;241;27485;-72
2024/01/29 08:01:04;;;;;;;7.43;6.10;;;5.90;99.90;;;;;;492791;236;27510;-75
2024/01/29 08:03:06;;;;;;;8.55;5.85;;;5.90;99.90;;;;;;492621;241;27442;-72
2024/01/29 08:05:08;;;;;;;11.20;6.35;;;;;;;;;;492658;241;27515;-73
2024/01/29 08:07:09;;;;;;;8.43;5.82;;;5.90;99.90;;;;;;493806;236;26810;-73
2024/01/29 08:09:12;;;;;;;9.80;6.00;;;;;;;;;;493780;240;27980;-72
2024/01/29 08:11:13;;;;;;;10.55;6.15;;;5.90;99.90;;;;;;493709;236;26426;-73
2024/01/29 08:13:15;;;;;;;10.27;7.05;;;;;;;;;;492617;241;27530;-73
2024/01/29 08:15:16;;;;;;;7.60;6.03;;;6.10;99.90;;;;;;492577;241;26932;-72
2024/01/29 08:17:18;;;;;;;10.35;6.50;;;6.10;99.90;;;;;;492820;236;28098;-73
2024/01/29 08:19:19;;;;;;;9.63;7.10;;;6.10;99.90;;;;;;492789;241;27599;-73
2024/01/29 08:21:20;;;;;;;9.32;5.95;;;6.00;99.90;;;;;;492666;236;27398;-72
2024/01/29 08:23:23;;;;;;;25.02;11.65;;;6.10;99.90;;;;;;492625;241;27463;-72
2024/01/29 08:25:24;;;;;;;12.60;7.37;;;6.20;99.90;;;;;;492658;241;27507;-73
2024/01/29 08:27:24;;;;;;;10.20;7.45;;;6.20;99.90;;;;;;493630;236;27511;-72
2024/01/29 08:29:25;;;;;;;12.32;7.62;;;6.30;99.90;;;;;;494039;240;27965;-72
2024/01/29 08:31:29;;;;;;;15.20;8.85;;;6.30;99.90;;;;;;495629;236;27424;-72
2024/01/29 08:33:28;;;;;;;14.15;10.18;;;6.30;99.90;;;;;;501042;235;27362;-73
2024/01/29 08:35:29;;;;;;;12.93;9.15;;;6.30;99.90;;;;;;502059;236;27719;-74
2024/01/29 08:37:30;;;;;;;12.90;8.05;;;6.30;99.90;;;;;;495254;236;27431;-72
2024/01/29 08:39:32;;;;;;;14.73;9.50;;;6.40;99.90;;;;;;494041;240;27965;-72
2024/01/29 08:41:33;;;;;;;10.27;7.07;;;6.40;99.90;;;;;;493626;236;27859;-72
2024/01/29 08:43:34;;;;;;;11.77;9.38;;;6.40;99.90;;;;;;492644;241;27471;-73
2024/01/29 08:45:35;;;;;;;16.25;12.05;;;6.50;99.90;;;;;;492600;241;27482;-74
2024/01/29 08:47:37;;;;;;;10.43;8.70;;;6.50;99.90;;;;;;493873;236;27462;-72
2024/01/29 08:49:38;;;;;;;14.77;7.75;;;6.50;99.90;;;;;;493989;240;27498;-73
2024/01/29 08:51:39;;;;;;;9.20;6.82;;;6.50;99.90;;;;;;494044;236;28796;-72
2024/01/29 08:53:40;;;;;;;8.30;6.47;;;6.50;99.90;;;;;;493979;240;27487;-72
2024/01/29 08:55:42;;;;;;;9.05;7.20;;;6.60;99.90;;;;;;493877;240;27530;-73
2024/01/29 08:57:43;;;;;;;9.57;6.40;;;6.60;99.90;;;;;;492701;236;27404;-72
2024/01/29 08:59:44;;;;;;;9.87;6.27;;;6.80;99.90;;;;;;492233;241;27492;-73
2024/01/29 09:01:45;;;;;;;10.75;7.32;;;6.70;99.90;;;;;;493042;236;29143;-74
2024/01/29 09:03:47;;;;;;;7.30;6.55;;;6.70;99.90;;;;;;493972;240;27471;-72
2024/01/29 09:05:48;;;;;;;11.07;7.15;;;6.70;99.90;;;;;;493991;240;27956;-73
2024/01/29 09:07:49;;;;;;;11.18;7.50;;;6.80;99.90;;;;;;492838;236;27435;-72
2024/01/29 09:09:50;;;;;;;6.90;6.20;;;6.80;99.90;;;;;;493850;236;27516;-72
2024/01/29 09:11:52;;;;;;;11.12;8.50;;;6.80;99.90;;;;;;502851;236;27450;-73
2024/01/29 09:13:53;;;;;;;9.80;7.47;;;6.80;99.90;;;;;;502916;236;27838;-72
2024/01/29 09:15:54;;;;;;;8.55;6.32;;;6.90;99.90;;;;;;502941;236;27503;-73
2024/01/29 09:17:55;;;;;;;8.90;6.43;;;6.90;99.90;;;;;;498954;236;28075;-72
2024/01/29 09:19:58;;;;;;;13.20;7.87;;;;;;;;;;502782;235;27474;-73
2024/01/29 09:22:09;;;;;;;8.73;7.77;;;;;;;;;;502826;236;26405;-75
2024/01/29 09:24:21;;;;;;;10.10;7.40;;;;;;;;;;502938;236;26604;-73
2024/01/29 09:26:35;;;;;;;8.90;7.03;;;;;;;;;;502853;236;27895;-72
2024/01/29 09:28:40;;;;;;;9.07;6.30;;;;;;;;;;502993;236;27391;-73
2024/01/29 09:30:40;;;;;;;8.07;6.35;;;7.00;99.90;;;;;;502828;236;27732;-72
2024/01/29 09:32:41;;;;;;;7.45;6.60;;;7.20;99.90;;;;;;502808;236;27454;-73
2024/01/29 09:34:42;;;;;;;12.90;6.68;;;7.10;99.90;;;;;;502974;236;27517;-73
2024/01/29 09:36:43;;;;;;;13.20;7.70;;;7.10;99.90;;;;;;502839;236;28017;-72
2024/01/29 09:38:46;;;;;;;8.13;6.83;;;7.30;99.90;;;;;;502889;236;29206;-73
2024/01/29 09:40:46;;;;;;;8.90;6.95;;;7.30;99.90;;;;;;502886;236;29404;-75
2024/01/29 09:42:47;;;;;;;9.83;8.53;;;7.30;99.90;;;;;;502877;236;27394;-72
2024/01/29 09:44:48;;;;;;;10.60;8.17;;;7.40;99.90;;;;;;502994;236;28821;-72
2024/01/29 09:46:50;;;;;;;8.20;6.50;;;7.40;99.90;;;;;;500390;236;28110;-72
2024/01/29 09:48:51;;;;;;;10.93;7.33;;;7.40;99.90;;;;;;494025;240;28154;-72
2024/01/29 09:50:52;;;;;;;10.10;6.77;;;7.50;99.90;;;;;;493966;240;27854;-72
2024/01/29 09:52:54;;;;;;;7.10;5.70;;;7.40;99.90;;;;;;493978;236;28806;-72
2024/01/29 09:54:55;;;;;;;14.30;9.27;;;7.40;99.90;;;;;;493974;240;28055;-73
2024/01/29 09:56:56;;;;;;;10.10;6.50;;;7.60;99.90;;;;;;496594;236;27905;-72
2024/01/29 09:58:57;;;;;;;14.10;7.60;;;7.60;99.90;;;;;;502916;236;27916;-73
2024/01/29 10:00:58;;;;;;;10.90;6.53;;;7.60;99.90;;;;;;502982;236;29277;-73
2024/01/29 10:03:00;;;;;;;7.87;5.93;;;7.60;99.90;;;;;;495564;236;28449;-72
2024/01/29 10:05:01;;;;;;;7.23;6.10;;;7.70;99.90;;;;;;493889;240;28704;-78
2024/01/29 10:07:02;;;;;;;9.07;6.33;;;7.70;99.90;;;;;;493651;236;28530;-72
2024/01/29 10:09:04;;;;;;;7.03;5.40;;;7.60;99.90;;;;;;492736;241;28072;-73
2024/01/29 10:11:05;;;;;;;12.03;7.60;;;7.60;99.90;;;;;;492613;241;27927;-73
2024/01/29 10:13:06;;;;;;;8.53;6.00;;;7.70;99.90;;;;;;492495;236;27980;-73
2024/01/29 10:15:07;;;;;;;21.13;12.67;;;7.80;99.90;;;;;;492613;241;28054;-73
2024/01/29 10:17:08;;;;;;;8.10;6.80;;;7.90;99.90;;;;;;492808;236;28244;-73
2024/01/29 10:19:12;;;;;;;8.43;6.70;;;7.90;99.90;;;;;;492754;241;27800;-73
2024/01/29 10:21:11;;;;;;;10.27;8.37;;;8.00;99.90;;;;;;492566;241;27956;-74
2024/01/29 10:23:12;;;;;;;8.50;6.63;;;8.10;99.90;;;;;;492711;236;27586;-73
2024/01/29 10:25:13;;;;;;;10.17;6.77;;;8.00;99.90;;;;;;492603;241;27952;-73
2024/01/29 10:27:15;;;;;;;10.33;6.80;;;8.00;99.90;;;;;;496280;236;28156;-73
2024/01/29 10:29:19;;;;;;;9.73;6.33;;;8.10;99.90;;;;;;503002;236;28400;-72
2024/01/29 10:31:20;;;;;;;12.60;7.07;;;8.10;99.90;;;;;;502974;236;27913;-72
2024/01/29 10:33:25;;;;;;;9.53;7.90;;;8.20;99.90;;;;;;493753;236;27953;-73
2024/01/29 10:35:25;;;;;;;9.97;6.90;;;8.30;99.90;;;;;;492420;241;27904;-72
2024/01/29 10:37:24;;;;;;;12.13;9.60;;;8.40;99.90;;;;;;496615;236;27431;-72
2024/01/29 10:39:25;;;;;;;13.30;8.20;;;8.40;99.90;;;;;;503002;236;28062;-73
2024/01/29 10:41:26;;;;;;;12.03;7.97;;;8.50;99.90;;;;;;502989;236;27939;-72